This is the latest recevied weather packets stored in our database for station/object vk4vs. If no packets are shown the sender has not sent any weather packets the latest 10 day(s).
| Time | Temp. | Humidity | Pressure | Rain* | Wind** | Luminosity | Snow |
|---|---|---|---|---|---|---|---|
| 1777478404 | 12.22° C | 96% | 1025 hPa | 0 mm | - | - | - |
| 1777476604 | 12.22° C | 96% | 1025.2 hPa | 0 mm | - | - | - |
| 1777474804 | 12.78° C | 96% | 1025.4 hPa | 0 mm | - | - | - |
| 1777473004 | 12.78° C | 96% | 1025.5 hPa | 0 mm | - | - | - |
| 1777471204 | 12.22° C | 96% | 1025.7 hPa | 0.25 mm | - | - | - |
| 1777469404 | 12.78° C | 96% | 1026.1 hPa | 0.25 mm | - | - | - |
| 1777467604 | 12.78° C | 95% | 1026 hPa | 0 mm | - | - | - |
| 1777465804 | 12.78° C | 95% | 1026.1 hPa | 0 mm | - | - | - |
| 1777464004 | 12.78° C | 95% | 1026.3 hPa | 0 mm | - | - | - |
| 1777462209 | 12.78° C | 95% | 1026.2 hPa | 0 mm | - | - | - |
| 1777460404 | 12.78° C | 95% | 1025.9 hPa | 0 mm | - | - | - |
| 1777458604 | 12.78° C | 93% | 1025.7 hPa | 0 mm | - | - | - |
| 1777456804 | 13.33° C | 92% | 1025.4 hPa | 0 mm | - | - | - |
| 1777455004 | 13.33° C | 90% | 1024.9 hPa | 0 mm | - | - | - |
| 1777453204 | 13.33° C | 92% | 1025.1 hPa | 0 mm | - | - | - |
| 1777451404 | 13.33° C | 92% | 1025 hPa | 0 mm | - | - | - |
| 1777449603 | 13.33° C | 92% | 1024.9 hPa | 0 mm | - | - | - |
| 1777447804 | 13.33° C | 93% | 1024.5 hPa | 0 mm | - | - | - |
| 1777446003 | 13.89° C | 93% | 1024.5 hPa | 0 mm | - | - | - |
| 1777444203 | 13.89° C | 93% | 1024.1 hPa | 0.76 mm | - | - | - |
| 1777442404 | 13.33° C | 92% | 1024.1 hPa | 0.76 mm | - | - | - |
| 1777440604 | 15.56° C | 83% | 1023.9 hPa | 0 mm | - | - | - |
| 1777438804 | 16.11° C | 80% | 1023.9 hPa | 0 mm | - | - | - |
| 1777437003 | 15.56° C | 85% | 1023.9 hPa | 0 mm | - | - | - |
| 1777435204 | 16.67° C | 77% | 1023.8 hPa | 0 mm | - | - | - |
* Rain latest hour (hover to see other rain measurements)
** Current wind speed in m/s (hover to see current wind gust speed)